createdAt,value
2022-08-07T00:00:40.094Z,16.99
2022-08-07T00:03:47.336Z,16.96
2022-08-07T00:06:52.267Z,16.92
2022-08-07T00:10:19.152Z,16.90
2022-08-07T00:13:25.775Z,16.81
2022-08-07T00:16:30.680Z,16.74
2022-08-07T00:20:02.773Z,16.72
2022-08-07T00:22:59.733Z,16.72
2022-08-07T00:26:18.705Z,16.73
2022-08-07T00:29:31.352Z,16.75
2022-08-07T00:32:36.229Z,16.72
2022-08-07T00:35:40.108Z,16.68
2022-08-07T00:38:44.152Z,16.66
2022-08-07T00:42:01.936Z,16.63
2022-08-07T00:45:10.263Z,16.56
2022-08-07T00:48:25.121Z,16.54
2022-08-07T00:51:57.479Z,16.51
2022-08-07T00:54:58.476Z,16.47
2022-08-07T00:58:03.580Z,16.45
2022-08-07T01:01:08.646Z,16.39
2022-08-07T01:04:21.691Z,16.40
2022-08-07T01:07:31.135Z,16.37
2022-08-07T01:10:35.663Z,16.37
2022-08-07T01:13:40.325Z,16.36
2022-08-07T01:17:00.203Z,16.32
2022-08-07T01:20:16.965Z,16.24
2022-08-07T01:23:25.519Z,16.17
2022-08-07T01:26:42.731Z,16.12
2022-08-07T01:29:55.767Z,16.09
2022-08-07T01:32:59.667Z,16.06
2022-08-07T01:36:09.472Z,16.03
2022-08-07T01:39:14.690Z,16.04
2022-08-07T01:42:39.772Z,16.14
2022-08-07T01:45:43.610Z,16.19
2022-08-07T01:48:50.779Z,16.21
2022-08-07T01:52:03.435Z,16.19
2022-08-07T01:55:09.606Z,16.15
2022-08-07T01:58:33.137Z,16.13
2022-08-07T02:02:02.646Z,16.07
2022-08-07T02:05:16.154Z,15.97
2022-08-07T02:08:41.008Z,15.89
2022-08-07T02:12:03.868Z,15.84
2022-08-07T02:15:10.287Z,15.78
2022-08-07T02:18:15.660Z,15.69
2022-08-07T02:21:23.770Z,15.61
2022-08-07T02:24:30.287Z,15.60
2022-08-07T02:27:35.625Z,15.58
2022-08-07T02:30:46.306Z,15.59
2022-08-07T02:34:03.931Z,15.59
2022-08-07T02:37:16.650Z,15.56
2022-08-07T02:40:30.432Z,15.53
2022-08-07T02:43:39.494Z,15.51
2022-08-07T02:46:46.604Z,15.48
2022-08-07T02:49:59.585Z,15.45
2022-08-07T02:53:10.982Z,15.44
2022-08-07T02:56:21.695Z,15.41
2022-08-07T02:59:27.757Z,15.37
2022-08-07T03:02:33.783Z,15.36
2022-08-07T03:05:39.492Z,15.26
2022-08-07T03:08:44.403Z,15.24
2022-08-07T03:11:52.243Z,15.18
2022-08-07T03:15:07.728Z,15.15
2022-08-07T03:18:17.461Z,15.14
2022-08-07T03:21:25.251Z,15.09
2022-08-07T03:24:29.675Z,15.09
2022-08-07T03:27:59.299Z,15.10
2022-08-07T03:31:17.922Z,15.13
2022-08-07T03:34:22.531Z,15.09
2022-08-07T03:37:32.504Z,15.06
2022-08-07T03:40:37.356Z,14.97
2022-08-07T03:43:48.149Z,14.88
2022-08-07T03:47:13.751Z,14.78
2022-08-07T03:50:24.945Z,14.77
2022-08-07T03:54:06.542Z,14.77
2022-08-07T03:57:03.582Z,14.75
2022-08-07T04:00:10.592Z,14.78
2022-08-07T04:03:14.817Z,14.78
2022-08-07T04:06:38.045Z,14.81
2022-08-07T04:09:45.563Z,14.78
2022-08-07T04:12:55.425Z,14.74
2022-08-07T04:16:00.993Z,14.72
2022-08-07T04:19:15.256Z,14.73
2022-08-07T04:22:20.283Z,14.72
2022-08-07T04:25:29.178Z,14.69
2022-08-07T04:28:33.459Z,14.69
2022-08-07T04:32:09.934Z,14.66
2022-08-07T04:35:06.235Z,14.67
2022-08-07T04:38:13.179Z,14.65
2022-08-07T04:41:18.361Z,14.63
2022-08-07T04:44:24.429Z,14.65
2022-08-07T04:47:57.065Z,14.72
2022-08-07T04:51:09.036Z,14.78
2022-08-07T04:54:22.676Z,14.84
2022-08-07T04:58:11.259Z,14.89
2022-08-07T05:01:30.304Z,14.94
2022-08-07T05:05:02.664Z,15.01
2022-08-07T05:09:00.591Z,15.07
2022-08-07T05:12:09.644Z,15.16
2022-08-07T05:15:26.591Z,15.18
2022-08-07T05:18:33.908Z,15.22
2022-08-07T05:22:00.691Z,15.31
2022-08-07T05:25:08.628Z,15.37
2022-08-07T05:28:23.440Z,15.44
2022-08-07T05:31:38.546Z,15.54
2022-08-07T05:34:44.340Z,15.65
2022-08-07T05:38:08.364Z,15.77
2022-08-07T05:41:15.950Z,15.79
2022-08-07T05:44:29.456Z,15.91
2022-08-07T05:47:38.170Z,15.98
2022-08-07T05:51:01.317Z,16.06
2022-08-07T05:54:13.547Z,16.15
2022-08-07T05:57:34.603Z,16.28
2022-08-07T06:00:46.453Z,16.35
2022-08-07T06:04:00.916Z,16.42
2022-08-07T06:07:06.105Z,16.55
2022-08-07T06:10:15.300Z,16.68
2022-08-07T06:13:20.936Z,16.82
2022-08-07T06:16:50.565Z,16.99
2022-08-07T06:20:03.642Z,17.12
2022-08-07T06:23:25.146Z,17.26
2022-08-07T06:26:33.475Z,17.40
2022-08-07T06:29:38.822Z,17.51
2022-08-07T06:32:43.467Z,17.62
2022-08-07T06:36:12.002Z,17.73
2022-08-07T06:40:17.986Z,17.88
2022-08-07T06:42:39.778Z,17.92
2022-08-07T06:45:45.525Z,18.08
2022-08-07T06:48:49.753Z,18.24
2022-08-07T06:51:59.279Z,18.37
2022-08-07T06:55:33.828Z,18.45
2022-08-07T07:00:11.971Z,18.67
2022-08-07T07:02:15.466Z,18.82
2022-08-07T07:06:02.762Z,19.07
2022-08-07T07:09:25.450Z,19.25
2022-08-07T07:12:48.691Z,19.42
2022-08-07T07:16:00.490Z,19.44
2022-08-07T07:19:23.607Z,19.67
2022-08-07T07:22:36.590Z,19.80
2022-08-07T07:26:35.183Z,19.85
2022-08-07T07:29:56.197Z,20.17
2022-08-07T07:32:56.890Z,20.37
2022-08-07T07:36:12.644Z,20.42
2022-08-07T07:39:17.824Z,20.42
2022-08-07T07:42:32.403Z,20.79
2022-08-07T07:46:39.852Z,21.42
2022-08-07T07:49:09.188Z,21.48
2022-08-07T07:52:30.458Z,22.57
2022-08-07T07:55:45.720Z,23.04
2022-08-07T07:59:06.021Z,23.68
2022-08-07T08:02:11.881Z,25.21
2022-08-07T08:05:53.889Z,26.13
2022-08-07T08:09:03.655Z,26.55
2022-08-07T08:12:09.242Z,26.76
2022-08-07T08:15:15.819Z,26.48
2022-08-07T08:18:23.004Z,26.21
2022-08-07T08:21:58.585Z,25.91
2022-08-07T08:25:42.315Z,25.52
2022-08-07T08:28:50.021Z,27.19
2022-08-07T08:31:58.674Z,27.71
2022-08-07T08:35:24.151Z,28.03
2022-08-07T08:38:41.019Z,28.38
2022-08-07T08:42:01.108Z,27.22
2022-08-07T08:45:20.969Z,26.80
2022-08-07T08:48:39.704Z,26.60
2022-08-07T08:52:14.513Z,27.75
2022-08-07T08:55:53.204Z,28.31
2022-08-07T08:59:06.511Z,27.87
2022-08-07T09:02:37.293Z,27.42
2022-08-07T09:05:55.708Z,27.11
2022-08-07T09:09:29.867Z,27.05
2022-08-07T09:13:09.461Z,26.69
2022-08-07T09:16:30.643Z,26.15
2022-08-07T09:19:53.032Z,25.99
2022-08-07T09:24:30.793Z,25.72
2022-08-07T09:27:04.595Z,25.93
2022-08-07T09:30:14.621Z,26.13
2022-08-07T09:33:56.624Z,25.65
2022-08-07T09:37:48.310Z,24.70
2022-08-07T09:41:14.129Z,24.43
2022-08-07T09:44:58.715Z,23.92
2022-08-07T09:48:29.981Z,24.02
2022-08-07T09:52:15.901Z,24.13
2022-08-07T09:55:29.467Z,24.27
2022-08-07T09:59:14.979Z,24.39
2022-08-07T10:02:35.204Z,24.21
2022-08-07T10:06:24.555Z,24.13
2022-08-07T10:10:00.851Z,24.26
2022-08-07T10:14:00.074Z,23.96
2022-08-07T10:18:02.865Z,24.07
2022-08-07T10:22:12.633Z,23.94
2022-08-07T10:25:13.622Z,23.87
2022-08-07T10:28:35.483Z,23.92
2022-08-07T10:32:36.870Z,23.89
2022-08-07T10:36:13.021Z,23.94
2022-08-07T10:39:57.402Z,23.90
2022-08-07T10:43:12.296Z,24.06
2022-08-07T10:46:20.326Z,24.00
2022-08-07T10:49:49.918Z,23.98
2022-08-07T10:53:08.060Z,24.21
2022-08-07T10:56:36.257Z,24.16
2022-08-07T11:00:05.758Z,23.88
2022-08-07T11:03:23.910Z,23.90
2022-08-07T11:06:44.806Z,24.08
2022-08-07T11:10:09.563Z,24.02
2022-08-07T11:14:45.197Z,24.12
2022-08-07T11:17:07.123Z,24.22
2022-08-07T11:20:35.454Z,24.43
2022-08-07T11:24:05.713Z,24.55
2022-08-07T11:27:33.578Z,24.28
2022-08-07T11:31:02.700Z,24.20
2022-08-07T11:34:20.640Z,23.98
2022-08-07T11:38:10.266Z,24.02
2022-08-07T11:41:30.958Z,24.16
2022-08-07T11:45:04.601Z,24.19
2022-08-07T11:49:27.481Z,24.37
2022-08-07T11:52:29.045Z,24.38
2022-08-07T11:56:24.861Z,24.27
2022-08-07T12:00:11.708Z,24.40
2022-08-07T12:03:04.811Z,24.55
2022-08-07T12:06:51.610Z,24.41
2022-08-07T12:10:25.067Z,24.53
2022-08-07T12:13:47.513Z,24.58
2022-08-07T12:16:58.066Z,24.58
2022-08-07T12:20:30.629Z,24.78
2022-08-07T12:24:06.956Z,24.82
2022-08-07T12:27:16.030Z,24.91
2022-08-07T12:30:23.727Z,24.91
2022-08-07T12:34:01.447Z,25.02
2022-08-07T12:36:57.682Z,24.76
2022-08-07T12:40:14.841Z,24.76
2022-08-07T12:44:02.539Z,24.72
2022-08-07T12:47:09.773Z,24.83
2022-08-07T12:50:40.238Z,24.64
2022-08-07T12:54:24.306Z,24.45
2022-08-07T12:57:38.720Z,24.63
2022-08-07T13:01:06.412Z,24.79
2022-08-07T13:04:37.890Z,24.98
2022-08-07T13:08:21.324Z,24.91
2022-08-07T13:12:01.841Z,24.94
2022-08-07T13:15:23.757Z,24.81
2022-08-07T13:19:06.107Z,24.75
2022-08-07T13:22:40.639Z,24.88
2022-08-07T13:25:54.085Z,24.91
2022-08-07T13:29:26.731Z,24.91
2022-08-07T13:33:04.217Z,24.67
2022-08-07T13:36:17.822Z,24.76
2022-08-07T13:40:33.924Z,24.89
2022-08-07T13:43:05.228Z,24.85
2022-08-07T13:46:24.930Z,24.90
2022-08-07T13:50:35.435Z,24.81
2022-08-07T13:53:00.437Z,24.79
2022-08-07T13:56:06.365Z,24.85
2022-08-07T13:59:31.448Z,24.82
2022-08-07T14:02:49.135Z,24.83
2022-08-07T14:05:57.199Z,24.78
2022-08-07T14:09:04.742Z,24.75
2022-08-07T14:12:20.804Z,24.79
2022-08-07T14:15:35.001Z,24.81
2022-08-07T14:18:45.843Z,24.90
2022-08-07T14:22:01.876Z,24.88
2022-08-07T14:25:13.916Z,24.92
2022-08-07T14:28:18.870Z,24.86
2022-08-07T14:31:25.254Z,24.83
2022-08-07T14:34:49.166Z,24.75
2022-08-07T14:38:05.794Z,24.71
2022-08-07T14:41:15.130Z,24.70
2022-08-07T14:44:20.168Z,24.80
2022-08-07T14:47:33.734Z,24.79
2022-08-07T14:50:44.626Z,24.85
2022-08-07T14:54:30.129Z,24.69
2022-08-07T14:57:54.501Z,24.58
2022-08-07T15:00:44.212Z,24.57
2022-08-07T15:03:53.663Z,24.75
2022-08-07T15:06:58.349Z,24.78
2022-08-07T15:10:10.924Z,24.63
2022-08-07T15:13:25.458Z,24.58
2022-08-07T15:17:00.756Z,24.65
2022-08-07T15:20:33.290Z,24.70
2022-08-07T15:27:05.361Z,24.65
2022-08-07T15:30:16.525Z,24.77
2022-08-07T15:33:22.241Z,24.82
2022-08-07T15:40:11.482Z,24.68
2022-08-07T15:43:33.253Z,24.57
2022-08-07T15:50:38.023Z,24.59
2022-08-07T15:53:52.871Z,24.63
2022-08-07T15:57:00.630Z,24.56
2022-08-07T16:00:06.414Z,24.53
2022-08-07T16:03:22.204Z,24.46
2022-08-07T16:06:52.487Z,24.44
2022-08-07T16:10:16.020Z,24.40
2022-08-07T16:13:58.386Z,24.47
2022-08-07T16:18:01.816Z,24.39
2022-08-07T16:21:44.053Z,24.28
2022-08-07T16:24:52.537Z,24.38
2022-08-07T16:29:18.246Z,24.52
2022-08-07T16:31:57.787Z,24.44
2022-08-07T16:35:58.906Z,24.29
2022-08-07T16:39:21.046Z,24.20
2022-08-07T16:42:47.013Z,24.18
2022-08-07T16:47:02.878Z,24.25
2022-08-07T16:50:36.247Z,24.29
2022-08-07T16:54:06.348Z,24.17
2022-08-07T16:58:02.060Z,23.99
2022-08-07T17:01:34.563Z,23.90
2022-08-07T17:05:05.384Z,23.84
2022-08-07T17:08:10.930Z,23.88
2022-08-07T17:12:04.625Z,23.98
2022-08-07T17:15:17.991Z,23.87
2022-08-07T17:18:46.135Z,23.86
2022-08-07T17:22:01.698Z,23.83
2022-08-07T17:25:16.650Z,23.80
2022-08-07T17:29:04.556Z,23.69
2022-08-07T17:32:35.150Z,23.71
2022-08-07T17:35:56.477Z,23.67
2022-08-07T17:39:17.797Z,23.79
2022-08-07T17:42:59.361Z,23.65
2022-08-07T17:46:13.690Z,23.64
2022-08-07T17:49:24.130Z,23.53
2022-08-07T17:53:06.047Z,23.49
2022-08-07T17:56:28.518Z,23.53
2022-08-07T17:59:41.360Z,23.36
2022-08-07T18:03:21.866Z,23.22
2022-08-07T18:06:43.653Z,23.24
2022-08-07T18:10:05.806Z,23.33
2022-08-07T18:13:11.730Z,23.23
2022-08-07T18:16:33.422Z,23.19
2022-08-07T18:21:12.716Z,23.08
2022-08-07T18:23:41.888Z,23.04
2022-08-07T18:26:50.461Z,23.00
2022-08-07T18:30:32.977Z,22.97
2022-08-07T18:33:59.885Z,22.84
2022-08-07T18:38:58.568Z,22.78
2022-08-07T18:41:09.026Z,22.76
2022-08-07T18:45:40.218Z,22.66
2022-08-07T18:50:31.057Z,22.56
2022-08-07T18:52:34.750Z,22.56
2022-08-07T18:55:42.985Z,22.41
2022-08-07T18:59:48.085Z,22.35
2022-08-07T19:02:56.477Z,22.26
2022-08-07T19:06:05.604Z,22.21
2022-08-07T19:09:57.291Z,22.14
2022-08-07T19:12:53.725Z,22.06
2022-08-07T19:17:01.526Z,22.03
2022-08-07T19:19:46.028Z,22.00
2022-08-07T19:23:18.718Z,21.89
2022-08-07T19:26:29.425Z,21.81
2022-08-07T19:31:04.382Z,21.77
2022-08-07T19:33:08.293Z,21.68
2022-08-07T19:36:27.777Z,21.65
2022-08-07T19:39:40.796Z,21.61
2022-08-07T19:42:59.230Z,21.56
2022-08-07T19:46:09.265Z,21.50
2022-08-07T19:49:56.332Z,21.47
2022-08-07T19:52:45.311Z,21.45
2022-08-07T19:56:15.148Z,21.38
2022-08-07T19:59:41.417Z,21.31
2022-08-07T20:02:52.300Z,21.28
2022-08-07T20:06:02.168Z,21.24
2022-08-07T20:09:07.466Z,21.18
2022-08-07T20:12:35.000Z,21.17
2022-08-07T20:15:42.273Z,21.12
2022-08-07T20:18:47.897Z,21.08
2022-08-07T20:21:52.890Z,21.06
2022-08-07T20:25:06.060Z,21.00
2022-08-07T20:28:14.990Z,20.97
2022-08-07T20:31:21.289Z,20.92
2022-08-07T20:34:49.307Z,20.87
2022-08-07T20:37:55.641Z,20.86
2022-08-07T20:41:05.612Z,20.82
2022-08-07T20:44:12.799Z,20.78
2022-08-07T20:47:55.417Z,20.73
2022-08-07T20:50:46.366Z,20.67
2022-08-07T20:54:04.481Z,20.65
2022-08-07T20:57:12.293Z,20.62
2022-08-07T21:00:22.351Z,20.60
2022-08-07T21:03:27.622Z,20.56
2022-08-07T21:06:33.753Z,20.54
2022-08-07T21:09:51.865Z,20.52
2022-08-07T21:12:59.554Z,20.49
2022-08-07T21:16:06.619Z,20.46
2022-08-07T21:19:13.967Z,20.43
2022-08-07T21:22:19.891Z,20.39
2022-08-07T21:25:43.678Z,20.35
2022-08-07T21:28:52.258Z,20.34
2022-08-07T21:32:47.133Z,20.31
2022-08-07T21:36:04.905Z,20.25
2022-08-07T21:39:47.346Z,20.25
2022-08-07T21:43:05.396Z,20.20
2022-08-07T21:46:32.310Z,20.17
2022-08-07T21:50:00.847Z,20.10
2022-08-07T21:53:16.227Z,20.08
2022-08-07T21:56:57.746Z,20.03
2022-08-07T22:00:25.229Z,20.01
2022-08-07T22:03:40.064Z,19.93
2022-08-07T22:06:56.396Z,19.92
2022-08-07T22:10:06.282Z,19.91
2022-08-07T22:13:14.387Z,19.84
2022-08-07T22:16:46.910Z,19.83
2022-08-07T22:20:07.001Z,19.79
2022-08-07T22:23:45.024Z,19.82
2022-08-07T22:27:03.366Z,19.74
2022-08-07T22:30:19.678Z,19.68
2022-08-07T22:33:51.026Z,19.66
2022-08-07T22:37:13.384Z,19.59
2022-08-07T22:40:33.154Z,19.58
2022-08-07T22:44:01.484Z,19.56
2022-08-07T22:47:16.835Z,19.52
2022-08-07T22:50:33.111Z,19.48
2022-08-07T22:54:05.592Z,19.46
2022-08-07T22:57:40.945Z,19.39
2022-08-07T23:01:11.073Z,19.42
2022-08-07T23:04:35.796Z,19.33
2022-08-07T23:07:56.736Z,19.28
2022-08-07T23:11:24.863Z,19.25
2022-08-07T23:14:48.389Z,19.17
2022-08-07T23:18:09.229Z,19.15
2022-08-07T23:21:29.834Z,19.13
2022-08-07T23:25:09.068Z,19.08
2022-08-07T23:28:29.359Z,19.04
2022-08-07T23:34:19.444Z,19.05
2022-08-07T23:35:47.113Z,18.93
2022-08-07T23:39:14.188Z,18.89
2022-08-07T23:42:30.484Z,18.80
2022-08-07T23:46:03.690Z,18.78
2022-08-07T23:49:50.054Z,18.71
2022-08-07T23:53:08.632Z,18.68
2022-08-07T23:56:35.096Z,18.61
